createdAt,value
2023-01-25T00:04:34.462Z,100910.31
2023-01-25T00:11:25.605Z,100906.06
2023-01-25T00:23:10.815Z,100923.44
2023-01-25T00:26:17.801Z,100921.22
2023-01-25T00:29:13.529Z,100923.47
2023-01-25T00:32:32.033Z,100933.31
2023-01-25T00:36:24.083Z,100925.19
2023-01-25T00:39:20.979Z,100927.06
2023-01-25T00:42:26.342Z,100924.19
2023-01-25T00:58:14.300Z,100955.22
2023-01-25T01:02:40.840Z,100969.81
2023-01-25T01:10:57.243Z,100999.19
2023-01-25T01:15:24.851Z,101018.66
2023-01-25T01:19:17.686Z,101027.47
2023-01-25T01:22:23.985Z,101045.28
2023-01-25T01:41:49.901Z,101076.41
2023-01-25T01:45:35.915Z,101076.19
2023-01-25T01:48:12.630Z,101080.75
2023-01-25T01:50:45.906Z,101078.03
2023-01-25T01:53:20.348Z,101066.72
2023-01-25T01:55:53.847Z,101062.31
2023-01-25T01:58:26.221Z,101069.69
2023-01-25T02:01:02.775Z,101081.47
2023-01-25T02:03:37.681Z,101089.31
2023-01-25T02:06:24.190Z,101091.81
2023-01-25T02:08:56.044Z,101088.06
2023-01-25T02:11:33.600Z,101082.75
2023-01-25T02:14:08.864Z,101080.16
2023-01-25T02:16:43.942Z,101068.63
2023-01-25T02:19:33.225Z,101059.25
2023-01-25T02:22:13.438Z,101062.06
2023-01-25T02:31:05.199Z,101041.06
2023-01-25T02:33:51.748Z,101045.03
2023-01-25T02:36:29.665Z,101036.75
2023-01-25T02:39:19.086Z,101029.19
2023-01-25T02:42:02.985Z,101027.16
2023-01-25T02:44:38.273Z,101020.88
2023-01-25T02:47:21.951Z,101033.50
2023-01-25T02:49:53.216Z,101044.13
2023-01-25T02:52:37.726Z,101050.75
2023-01-25T02:55:11.852Z,101046.78
2023-01-25T02:57:48.859Z,101047.16
2023-01-25T03:00:24.611Z,101047.00
2023-01-25T03:02:55.167Z,101050.78
2023-01-25T03:05:36.780Z,101056.19
2023-01-25T03:08:11.533Z,101065.81
2023-01-25T03:10:44.735Z,101060.91
2023-01-25T03:13:14.267Z,101054.75
2023-01-25T03:15:45.640Z,101046.06
2023-01-25T03:18:19.046Z,101045.34
2023-01-25T03:20:52.917Z,101034.84
2023-01-25T03:23:23.078Z,101030.03
2023-01-25T03:25:53.495Z,101029.16
2023-01-25T03:28:24.669Z,101026.66
2023-01-25T03:31:03.841Z,101018.22
2023-01-25T03:33:36.013Z,101014.13
2023-01-25T03:36:09.916Z,101011.25
2023-01-25T03:38:43.923Z,101008.97
2023-01-25T03:41:15.893Z,101007.88
2023-01-25T03:43:49.877Z,100988.09
2023-01-25T03:46:21.200Z,100978.88
2023-01-25T03:48:53.768Z,100976.00
2023-01-25T03:51:25.624Z,100975.13
2023-01-25T03:54:03.679Z,100978.03
2023-01-25T03:56:39.296Z,100979.34
2023-01-25T03:59:34.177Z,100969.00
2023-01-25T04:02:11.991Z,100951.56
2023-01-25T04:04:44.191Z,100954.94
2023-01-25T04:07:17.819Z,100939.97
2023-01-25T04:09:49.959Z,100946.50
2023-01-25T04:12:21.862Z,100943.59
2023-01-25T04:14:53.945Z,100936.03
2023-01-25T04:17:33.634Z,100924.47
2023-01-25T04:20:12.083Z,100924.47
2023-01-25T04:22:43.986Z,100914.38
2023-01-25T04:25:13.667Z,100919.06
2023-01-25T04:27:53.696Z,100926.38
2023-01-25T04:30:24.799Z,100926.53
2023-01-25T04:32:54.436Z,100930.59
2023-01-25T04:35:33.630Z,100928.91
2023-01-25T04:38:06.094Z,100917.84
2023-01-25T04:40:44.956Z,100912.19
2023-01-25T04:43:19.157Z,100917.41
2023-01-25T04:45:51.776Z,100910.31
2023-01-25T04:48:35.312Z,100897.19
2023-01-25T04:51:10.294Z,100900.44
2023-01-25T04:53:41.719Z,100894.53
2023-01-25T04:56:11.920Z,100894.19
2023-01-25T04:58:51.065Z,100903.66
2023-01-25T05:01:21.251Z,100909.53
2023-01-25T05:03:52.684Z,100912.59
2023-01-25T05:06:37.811Z,100913.88
2023-01-25T05:09:11.902Z,100924.84
2023-01-25T05:11:46.102Z,100932.16
2023-01-25T05:14:32.015Z,100949.25
2023-01-25T05:17:04.007Z,100935.66
2023-01-25T05:19:35.901Z,100934.91
2023-01-25T05:22:16.513Z,100928.06
2023-01-25T05:24:52.290Z,100939.59
2023-01-25T05:27:23.951Z,100926.31
2023-01-25T05:30:04.395Z,100919.91
2023-01-25T05:32:54.042Z,100911.16
2023-01-25T05:35:33.714Z,100902.84
2023-01-25T05:38:05.585Z,100895.59
2023-01-25T05:40:40.601Z,100900.44
2023-01-25T05:43:12.177Z,100907.69
2023-01-25T05:45:44.026Z,100940.69
2023-01-25T05:48:16.201Z,100950.09
2023-01-25T05:50:48.976Z,100959.59
2023-01-25T05:53:28.452Z,100966.22
2023-01-25T05:56:09.287Z,100969.22
2023-01-25T05:58:41.266Z,100979.28
2023-01-25T06:01:11.021Z,100985.19
2023-01-25T06:03:51.159Z,100988.59
2023-01-25T06:06:21.731Z,100980.16
2023-01-25T06:08:53.261Z,100964.03
2023-01-25T06:11:26.243Z,100969.25
2023-01-25T06:14:04.212Z,100966.81
2023-01-25T06:16:37.485Z,100972.00
2023-01-25T06:19:28.063Z,100945.66
2023-01-25T06:22:18.078Z,100931.00
2023-01-25T06:24:50.160Z,100926.38
2023-01-25T06:27:22.206Z,100923.72
2023-01-25T06:29:53.698Z,100920.59
2023-01-25T06:32:26.237Z,100924.19
2023-01-25T06:35:01.206Z,100917.78
2023-01-25T06:37:33.032Z,100925.94
2023-01-25T06:40:03.787Z,100940.19
2023-01-25T06:42:34.247Z,100932.78
2023-01-25T06:45:05.141Z,100934.13
2023-01-25T06:47:34.311Z,100940.09
2023-01-25T06:50:05.212Z,100935.50
2023-01-25T06:52:37.564Z,100917.72
2023-01-25T06:55:14.634Z,100894.97
2023-01-25T06:57:45.890Z,100885.84
2023-01-25T07:00:18.040Z,100896.00
2023-01-25T07:02:50.224Z,100909.13
2023-01-25T07:05:20.010Z,100904.91
2023-01-25T07:07:49.116Z,100908.78
2023-01-25T07:10:18.120Z,100911.56
2023-01-25T07:12:49.444Z,100914.81
2023-01-25T07:15:20.250Z,100920.31
2023-01-25T07:17:49.592Z,100912.63
2023-01-25T07:20:20.302Z,100897.75
2023-01-25T07:22:49.804Z,100901.81
2023-01-25T07:25:20.409Z,100895.19
2023-01-25T07:27:49.926Z,100882.22
2023-01-25T07:30:22.236Z,100876.22
2023-01-25T07:32:52.792Z,100873.16
2023-01-25T07:35:22.366Z,100867.41
2023-01-25T07:37:52.690Z,100864.84
2023-01-25T07:40:30.309Z,100847.25
2023-01-25T07:43:03.869Z,100855.63
2023-01-25T07:45:36.690Z,100868.84
2023-01-25T07:48:13.386Z,100880.78
2023-01-25T07:50:43.802Z,100888.13
2023-01-25T07:53:14.744Z,100881.53
2023-01-25T07:55:47.879Z,100890.84
2023-01-25T07:58:18.041Z,100916.53
2023-01-25T08:00:50.027Z,100941.66
2023-01-25T08:03:23.269Z,100936.13
2023-01-25T08:06:10.102Z,100949.88
2023-01-25T08:09:14.053Z,100960.94
2023-01-25T08:11:50.041Z,100941.31
2023-01-25T08:14:33.257Z,100958.28
2023-01-25T08:17:07.041Z,100968.41
2023-01-25T08:19:37.967Z,100945.63
2023-01-25T08:22:11.743Z,100964.47
2023-01-25T08:24:46.035Z,100969.03
2023-01-25T08:27:18.503Z,100963.25
2023-01-25T08:29:51.987Z,100964.69
2023-01-25T08:32:22.620Z,100945.19
2023-01-25T08:34:53.245Z,100950.72
2023-01-25T08:37:23.968Z,100968.53
2023-01-25T08:39:53.849Z,100977.19
2023-01-25T08:42:32.943Z,100973.59
2023-01-25T08:45:04.427Z,100962.38
2023-01-25T08:47:34.386Z,100956.44
2023-01-25T08:50:05.698Z,100965.94
2023-01-25T08:52:36.952Z,100959.97
2023-01-25T08:55:08.425Z,100966.03
2023-01-25T08:57:38.565Z,100984.34
2023-01-25T09:00:13.809Z,100986.75
2023-01-25T09:02:44.594Z,100987.13
2023-01-25T09:05:15.031Z,100983.19
2023-01-25T09:07:46.045Z,101009.50
2023-01-25T09:10:20.222Z,101017.38
2023-01-25T09:12:50.348Z,101001.84
2023-01-25T09:15:22.123Z,101022.09
2023-01-25T09:17:53.748Z,100995.66
2023-01-25T09:20:26.056Z,100944.22
2023-01-25T09:23:05.783Z,100957.56
2023-01-25T09:25:38.291Z,100977.47
2023-01-25T09:28:13.377Z,100980.59
2023-01-25T09:30:48.416Z,100965.63
2023-01-25T09:33:37.933Z,100988.69
2023-01-25T09:36:09.612Z,100978.03
2023-01-25T09:38:41.893Z,100965.06
2023-01-25T09:41:48.364Z,100969.44
2023-01-25T09:44:33.361Z,100976.19
2023-01-25T09:47:26.753Z,100969.31
2023-01-25T09:50:25.737Z,100967.84
2023-01-25T09:53:25.692Z,100961.38
2023-01-25T09:56:05.630Z,100966.22
2023-01-25T09:58:48.035Z,100978.56
2023-01-25T10:01:54.275Z,100956.09
2023-01-25T10:04:32.992Z,100936.16
2023-01-25T10:07:32.554Z,100896.50
2023-01-25T10:10:37.329Z,100847.50
2023-01-25T10:13:13.945Z,100833.72
2023-01-25T10:15:52.473Z,100814.00
2023-01-25T10:18:53.671Z,100786.66
2023-01-25T10:21:49.364Z,100727.34
2023-01-25T10:24:53.500Z,100668.81
2023-01-25T10:27:47.498Z,100639.72
2023-01-25T10:30:44.627Z,100599.47
2023-01-25T10:33:24.942Z,100607.75
2023-01-25T10:42:05.206Z,100671.34
2023-01-25T10:44:54.206Z,100713.28
2023-01-25T10:48:22.875Z,100748.66
2023-01-25T10:54:30.420Z,100795.88
2023-01-25T10:57:09.291Z,100814.38
2023-01-25T10:59:45.086Z,100822.22
2023-01-25T11:03:14.806Z,100805.28
2023-01-25T11:06:14.637Z,100762.50
2023-01-25T11:09:25.912Z,100777.78
2023-01-25T11:12:20.507Z,100778.13
2023-01-25T11:14:53.435Z,100789.72
2023-01-25T11:17:42.247Z,100805.84
2023-01-25T11:20:24.387Z,100791.94
2023-01-25T11:23:04.490Z,100811.06
2023-01-25T11:28:44.843Z,100802.69
2023-01-25T11:31:25.224Z,100802.34
2023-01-25T11:33:54.639Z,100788.06
2023-01-25T11:37:13.111Z,100779.56
2023-01-25T11:40:38.529Z,100755.06
2023-01-25T11:44:02.567Z,100746.78
2023-01-25T11:47:28.777Z,100726.75
2023-01-25T11:50:22.504Z,100709.75
2023-01-25T11:53:46.770Z,100685.78
2023-01-25T11:57:25.685Z,100668.00
2023-01-25T12:01:13.941Z,100655.59
2023-01-25T12:04:50.242Z,100624.44
2023-01-25T12:08:01.381Z,100670.19
2023-01-25T12:11:13.345Z,100701.69
2023-01-25T12:14:38.160Z,100685.09
2023-01-25T12:18:07.129Z,100667.53
2023-01-25T12:25:14.201Z,100699.38
2023-01-25T12:28:10.628Z,100692.78
2023-01-25T12:36:22.952Z,100703.88
2023-01-25T12:40:08.096Z,100678.53
2023-01-25T12:43:37.669Z,100671.16
2023-01-25T12:47:20.969Z,100664.53
2023-01-25T12:55:09.185Z,100659.50
2023-01-25T12:58:44.454Z,100658.44
2023-01-25T13:07:18.227Z,100668.31
2023-01-25T13:31:09.255Z,100798.56
2023-01-25T13:34:49.523Z,100799.41
2023-01-25T13:42:49.819Z,100760.34
2023-01-25T13:46:10.579Z,100723.66
2023-01-25T13:49:48.529Z,100720.34
2023-01-25T13:54:07.739Z,100744.50
2023-01-25T14:01:24.951Z,100732.06
2023-01-25T14:04:21.975Z,100702.22
2023-01-25T14:07:12.458Z,100685.97
2023-01-25T14:10:52.304Z,100684.56
2023-01-25T14:30:39.195Z,100617.88
2023-01-25T14:42:00.818Z,100675.16
2023-01-25T14:49:09.094Z,100738.63
2023-01-25T14:51:52.558Z,100739.72
2023-01-25T14:54:49.489Z,100670.59
2023-01-25T15:03:08.607Z,100595.66
2023-01-25T15:05:50.338Z,100580.06
2023-01-25T15:08:52.154Z,100602.66
2023-01-25T15:11:52.194Z,100593.19
2023-01-25T15:15:17.204Z,100558.09
2023-01-25T15:19:09.873Z,100553.91
2023-01-25T15:22:03.563Z,100579.81
2023-01-25T15:28:43.935Z,100554.53
2023-01-25T15:31:41.422Z,100571.16
2023-01-25T15:34:40.611Z,100564.78
2023-01-25T15:37:22.280Z,100553.84
2023-01-25T15:40:06.437Z,100569.34
2023-01-25T15:43:25.751Z,100593.63
2023-01-25T15:50:13.647Z,100606.81
2023-01-25T15:53:06.345Z,100564.09
2023-01-25T15:56:51.040Z,100548.78
2023-01-25T16:00:04.772Z,100491.97
2023-01-25T16:02:45.875Z,100439.88
2023-01-25T16:06:23.031Z,100436.78
2023-01-25T16:15:51.070Z,100428.63
2023-01-25T17:07:18.382Z,100340.75
2023-01-25T17:26:23.188Z,100299.97
2023-01-25T17:45:49.259Z,100192.81
2023-01-25T17:49:34.439Z,100153.13
2023-01-25T17:57:44.677Z,100108.47
2023-01-25T18:02:00.424Z,100085.00
2023-01-25T18:04:54.232Z,100078.56
2023-01-25T18:07:26.510Z,100071.31
2023-01-25T18:10:04.324Z,100055.00
2023-01-25T18:12:52.999Z,100025.69
2023-01-25T18:15:46.493Z,100022.88
2023-01-25T18:18:35.693Z,100031.72
2023-01-25T18:21:38.860Z,100017.47
2023-01-25T18:24:34.168Z,99995.47
2023-01-25T18:27:19.155Z,99984.19
2023-01-25T18:30:09.009Z,99947.91
2023-01-25T18:32:50.067Z,99971.03
2023-01-25T18:35:38.643Z,99945.56
2023-01-25T18:38:14.333Z,99925.91
2023-01-25T18:41:05.381Z,99916.75
2023-01-25T18:43:42.471Z,99908.63
2023-01-25T18:46:54.764Z,99905.75
2023-01-25T18:49:50.053Z,99890.81
2023-01-25T18:52:25.110Z,99881.59
2023-01-25T18:55:02.585Z,99901.09
2023-01-25T19:01:06.123Z,99865.63
2023-01-25T19:03:41.465Z,99854.53
2023-01-25T19:06:13.003Z,99819.31
2023-01-25T19:08:50.306Z,99804.75
2023-01-25T19:11:20.867Z,99816.66
2023-01-25T19:13:51.253Z,99833.25
2023-01-25T19:16:25.041Z,99809.16
2023-01-25T19:18:55.928Z,99777.09
2023-01-25T19:21:29.145Z,99755.84
2023-01-25T19:24:00.706Z,99732.31
2023-01-25T19:26:41.445Z,99703.25
2023-01-25T19:29:11.278Z,99678.03
2023-01-25T19:31:49.281Z,99642.97
2023-01-25T19:34:18.065Z,99632.00
2023-01-25T19:36:50.657Z,99612.72
2023-01-25T19:39:21.027Z,99613.81
2023-01-25T19:41:53.850Z,99613.00
2023-01-25T19:44:24.841Z,99543.91
2023-01-25T19:46:54.677Z,99519.72
2023-01-25T19:49:24.761Z,99509.59
2023-01-25T19:51:56.112Z,99480.56
2023-01-25T19:54:27.047Z,99471.91
2023-01-25T19:56:57.884Z,99449.53
2023-01-25T19:59:33.797Z,99440.91
2023-01-25T20:02:06.155Z,99416.69
2023-01-25T20:04:38.720Z,99428.69
2023-01-25T20:07:10.317Z,99428.34
2023-01-25T20:09:45.737Z,99420.94
2023-01-25T20:12:17.313Z,99441.34
2023-01-25T20:14:48.191Z,99406.94
2023-01-25T20:17:18.766Z,99383.25
2023-01-25T20:19:48.723Z,99349.97
2023-01-25T20:22:17.718Z,99354.16
2023-01-25T20:24:46.864Z,99326.13
2023-01-25T20:27:16.131Z,99325.84
2023-01-25T20:29:45.275Z,99329.41
2023-01-25T20:32:30.606Z,99345.22
2023-01-25T20:35:04.302Z,99331.56
2023-01-25T20:37:33.651Z,99323.34
2023-01-25T20:40:03.316Z,99308.97
2023-01-25T20:42:32.993Z,99302.63
2023-01-25T20:45:02.321Z,99296.66
2023-01-25T20:47:31.118Z,99290.91
2023-01-25T20:50:01.264Z,99282.06
2023-01-25T20:52:31.071Z,99300.16
2023-01-25T20:55:00.537Z,99313.56
2023-01-25T20:57:30.415Z,99320.91
2023-01-25T20:59:59.843Z,99308.59
2023-01-25T21:02:29.654Z,99297.94
2023-01-25T21:05:00.307Z,99297.19
2023-01-25T21:07:30.169Z,99317.22
2023-01-25T21:09:59.599Z,99309.22
2023-01-25T21:12:29.176Z,99304.88
2023-01-25T21:14:59.638Z,99278.34
2023-01-25T21:17:30.066Z,99283.53
2023-01-25T21:20:00.572Z,99269.88
2023-01-25T21:22:32.023Z,99240.34
2023-01-25T21:25:01.844Z,99236.88
2023-01-25T21:27:33.808Z,99204.06
2023-01-25T21:30:16.954Z,99185.28
2023-01-25T21:32:47.924Z,99178.50
2023-01-25T21:35:17.163Z,99170.22
2023-01-25T21:37:46.869Z,99205.00
2023-01-25T21:40:16.958Z,99213.19
2023-01-25T21:42:45.739Z,99221.25
2023-01-25T21:45:36.802Z,99208.38
2023-01-25T21:48:42.033Z,99189.09
2023-01-25T21:51:33.663Z,99199.38
2023-01-25T21:54:05.917Z,99194.16
2023-01-25T21:56:35.329Z,99210.50
2023-01-25T21:59:04.395Z,99200.63
2023-01-25T22:01:34.260Z,99209.63
2023-01-25T22:04:05.771Z,99209.19
2023-01-25T22:06:40.916Z,99205.25
2023-01-25T22:09:13.861Z,99188.13
2023-01-25T22:11:54.338Z,99168.56
2023-01-25T22:14:40.618Z,99141.63
2023-01-25T22:17:19.084Z,99113.69
2023-01-25T22:19:49.260Z,99100.69
2023-01-25T22:22:20.304Z,99091.72
2023-01-25T22:24:50.004Z,99079.75
2023-01-25T22:27:33.740Z,99067.47
2023-01-25T22:30:04.206Z,99042.34
2023-01-25T22:32:34.179Z,99024.91
2023-01-25T22:35:04.419Z,99019.88
2023-01-25T22:38:34.173Z,99016.53
2023-01-25T22:41:37.115Z,99016.03
2023-01-25T22:47:26.963Z,99023.91
2023-01-25T22:50:18.826Z,99008.75
2023-01-25T22:52:52.316Z,98998.13
2023-01-25T22:55:21.735Z,98988.69
2023-01-25T22:57:54.563Z,98985.44
2023-01-25T23:00:36.149Z,98977.06
2023-01-25T23:03:12.778Z,98957.63
2023-01-25T23:05:45.577Z,98956.13
2023-01-25T23:08:17.595Z,98948.88
2023-01-25T23:10:47.607Z,98932.19
2023-01-25T23:13:18.936Z,98930.63
2023-01-25T23:15:48.828Z,98922.22
2023-01-25T23:18:38.034Z,98928.50
2023-01-25T23:21:10.873Z,98934.06
2023-01-25T23:23:42.218Z,98939.13
2023-01-25T23:26:12.168Z,98948.34
2023-01-25T23:28:46.434Z,98948.59
2023-01-25T23:31:18.637Z,98929.44
2023-01-25T23:33:55.095Z,98915.22
2023-01-25T23:36:36.702Z,98892.34
2023-01-25T23:39:06.913Z,98896.19
2023-01-25T23:42:15.792Z,98881.91
2023-01-25T23:44:52.075Z,98863.47
2023-01-25T23:47:20.796Z,98856.06
2023-01-25T23:49:50.241Z,98873.19
2023-01-25T23:52:20.165Z,98869.22
2023-01-25T23:54:50.062Z,98881.94
2023-01-25T23:57:20.363Z,98888.13
2023-01-25T23:59:50.264Z,98887.34
